Mareeba, Queensland

11:56 AM AEST on September 01, 2015 (GMT +1000)
Mareeba, (Cairns) | | Change Station
CLOSE
Current Station
Personal Weather Station
Location: Paddy's Green, Queensland
Elevation: 1739 ft
Nearby Weather Stations

Elev 1739 ft 17.02 °S, 145.34 °E | Updated 19 seconds ago

Partly Cloudy
Partly Cloudy
81.8 °F
Feels Like 83 °F
N
10.4
Wind Variable Wind from North
Gusts 10.4 mph

Today
High -- | Low -- °F
--% Chance of Precip.
Yesterday
High -- | Low -- °F
Precip. -- in
6:25 AM 6:11 PM
Waning Gibbous, 92% visible
Pressure 30.01 in
Visibility 6.2 miles
Clouds Few 3000 ft
Heat Index 83 °F
Dew Point 63 °F
Humidity 53%
Rainfall 0.00 in
Snow Depth Not available.
UV 8.7 out of 12
Pollen Not available.
Air Quality Not available.
Flu Activity Not available.
METAR YBCS 010130Z 02008KT 9999 FEW030 27/19 Q1016
Pressure 30.01 in
Visibility 6.2 miles
Clouds Few 3000 ft
Heat Index 83 °F
Dew Point 63 °F
Humidity 53%
Rainfall 0.00 in
Snow Depth Not available.
UV 8.7 out of 12
Pollen Not available.
Air Quality Not available.
Flu Activity Not available.
METAR YBCS 010130Z 02008KT 9999 FEW030 27/19 Q1016

10-Day Weather Forecast

×

Almanac

Astronomy

Sep. 01, 2015 Rise Set
Actual Time
Civil Twilight
Nautical Twilight
Astronomical Twilight
Moon
Length of Visible Light
Length of Day
Tomorrow will be .
, % of the Moon is Illuminated

Today's Extremes

Country Highs Country Lows

Community

WunderPhotos

Upload Photos

1,851,427 photos uploaded!

WunderBlogs® & News

Nearby

Air Quality

  Air Quality AQ Index Pollutant
Not available.

Snow Depth

Station Depth Elevation

Earthquake Activity

City Distance Mag. Time & Date
Minimum magnitude displayed is 2.5.

Coastal Water Temperatures

Place Temperature

Stations

Nearby Weather Stations

Station Location Temp. Windchill Dew Point Humidity Wind Precip. Elev Updated Type